createdAt,value
2022-12-19T00:02:21.198Z,54.63
2022-12-19T00:04:48.718Z,54.83
2022-12-19T00:07:17.031Z,57.17
2022-12-19T00:09:44.596Z,59.37
2022-12-19T00:12:17.447Z,56.10
2022-12-19T00:14:39.714Z,64.07
2022-12-19T00:17:07.249Z,62.73
2022-12-19T00:19:34.842Z,54.57
2022-12-19T00:22:02.358Z,52.17
2022-12-19T00:24:29.882Z,56.50
2022-12-19T00:26:57.722Z,52.83
2022-12-19T00:29:25.250Z,49.93
2022-12-19T00:31:52.802Z,51.13
2022-12-19T00:34:21.123Z,50.27
2022-12-19T00:36:48.659Z,52.63
2022-12-19T00:39:16.193Z,54.13
2022-12-19T00:41:43.789Z,51.27
2022-12-19T00:44:11.293Z,51.50
2022-12-19T00:46:39.598Z,50.47
2022-12-19T00:49:07.179Z,49.60
2022-12-19T00:51:34.727Z,45.97
2022-12-19T00:54:02.327Z,47.97
2022-12-19T00:56:30.588Z,51.90
2022-12-19T00:58:58.122Z,61.08
2022-12-19T01:01:25.820Z,55.85
2022-12-19T01:04:26.748Z,49.13
2022-12-19T01:06:21.170Z,50.23
2022-12-19T01:08:49.457Z,48.50
2022-12-19T01:11:17.031Z,51.83
2022-12-19T01:13:44.564Z,46.67
2022-12-19T01:16:12.922Z,48.83
2022-12-19T01:18:41.358Z,50.93
2022-12-19T01:21:08.889Z,45.13
2022-12-19T01:23:37.182Z,45.87
2022-12-19T01:26:04.766Z,52.90
2022-12-19T01:28:32.291Z,47.87
2022-12-19T01:30:59.826Z,49.13
2022-12-19T01:33:28.159Z,48.10
2022-12-19T01:35:55.682Z,51.93
2022-12-19T01:38:23.218Z,50.87
2022-12-19T01:40:50.803Z,46.37
2022-12-19T01:43:18.326Z,55.60
2022-12-19T01:45:46.331Z,49.80
2022-12-19T01:48:17.004Z,53.25
2022-12-19T01:50:59.096Z,54.40
2022-12-19T01:53:15.485Z,55.10
2022-12-19T01:55:43.070Z,46.37
2022-12-19T01:58:10.575Z,48.93
2022-12-19T02:00:38.106Z,44.40
2022-12-19T02:03:08.693Z,44.70
2022-12-19T02:05:36.932Z,44.30
2022-12-19T02:08:04.444Z,45.47
2022-12-19T02:10:32.021Z,44.77
2022-12-19T02:13:00.337Z,50.37
2022-12-19T02:15:27.881Z,46.23
2022-12-19T02:18:04.855Z,42.77
2022-12-19T02:20:56.977Z,46.77
2022-12-19T02:23:56.027Z,43.10
2022-12-19T02:27:00.078Z,44.17
2022-12-19T02:29:46.054Z,53.77
2022-12-19T02:32:25.319Z,41.57
2022-12-19T02:35:02.218Z,46.53
2022-12-19T02:37:29.744Z,40.63
2022-12-19T02:40:07.391Z,47.27
2022-12-19T02:42:34.912Z,43.57
2022-12-19T02:45:03.246Z,40.87
2022-12-19T02:47:30.785Z,42.70
2022-12-19T02:49:58.516Z,41.00
2022-12-19T02:52:25.894Z,45.60
2022-12-19T02:54:53.464Z,43.47
2022-12-19T02:57:26.705Z,40.53
2022-12-19T03:00:05.854Z,41.77
2022-12-19T03:02:39.826Z,46.42
2022-12-19T03:05:31.272Z,45.17
2022-12-19T03:08:04.648Z,43.47
2022-12-19T03:10:35.302Z,42.63
2022-12-19T03:13:24.208Z,47.03
2022-12-19T03:15:51.752Z,47.55
2022-12-19T03:18:19.288Z,42.13
2022-12-19T03:20:59.647Z,37.73
2022-12-19T03:23:27.194Z,41.53
2022-12-19T03:25:55.729Z,45.70
2022-12-19T03:28:23.313Z,49.05
2022-12-19T03:30:50.887Z,46.10
2022-12-19T03:33:18.386Z,39.43
2022-12-19T03:35:46.706Z,43.97
2022-12-19T03:38:14.234Z,42.57
2022-12-19T03:40:41.778Z,42.70
2022-12-19T03:43:11.239Z,42.67
2022-12-19T03:45:40.405Z,37.60
2022-12-19T03:48:07.911Z,46.00
2022-12-19T03:50:35.508Z,47.67
2022-12-19T03:53:09.029Z,42.77
2022-12-19T03:55:39.582Z,46.50
2022-12-19T03:58:07.126Z,38.47
2022-12-19T04:00:34.675Z,45.63
2022-12-19T04:03:02.268Z,44.03
2022-12-19T04:05:29.773Z,39.07
2022-12-19T04:07:57.296Z,43.07
2022-12-19T04:10:25.231Z,38.40
2022-12-19T04:13:04.458Z,46.45
2022-12-19T04:15:44.288Z,40.07
2022-12-19T04:18:11.768Z,42.80
2022-12-19T04:20:39.312Z,41.63
2022-12-19T04:23:15.882Z,43.10
2022-12-19T04:25:46.304Z,39.80
2022-12-19T04:28:14.597Z,39.03
2022-12-19T04:30:42.228Z,42.20
2022-12-19T04:33:09.686Z,42.60
2022-12-19T04:35:37.263Z,49.43
2022-12-19T04:38:05.593Z,42.03
2022-12-19T04:40:37.927Z,40.93
2022-12-19T04:43:00.642Z,40.17
2022-12-19T04:45:28.215Z,42.80
2022-12-19T04:47:55.864Z,42.23
2022-12-19T04:50:24.143Z,39.67
2022-12-19T04:52:56.817Z,40.23
2022-12-19T04:55:19.241Z,44.10
2022-12-19T04:57:47.532Z,41.37
2022-12-19T05:00:15.264Z,43.47
2022-12-19T05:02:42.941Z,42.83
2022-12-19T05:05:10.344Z,38.70
2022-12-19T05:07:38.197Z,39.67
2022-12-19T05:10:05.863Z,42.73
2022-12-19T05:12:33.554Z,46.10
2022-12-19T05:15:02.148Z,41.53
2022-12-19T05:17:29.648Z,45.75
2022-12-19T05:19:57.228Z,38.43
2022-12-19T05:22:27.836Z,38.07
2022-12-19T05:24:55.421Z,39.60
2022-12-19T05:27:22.996Z,41.33
2022-12-19T05:29:50.605Z,47.80
2022-12-19T05:32:19.003Z,45.67
2022-12-19T05:34:46.539Z,40.47
2022-12-19T05:37:14.898Z,42.90
2022-12-19T05:39:42.452Z,41.13
2022-12-19T05:42:12.499Z,39.63
2022-12-19T05:44:38.419Z,37.60
2022-12-19T05:47:05.984Z,43.73
2022-12-19T05:49:34.327Z,41.73
2022-12-19T05:52:01.969Z,38.40
2022-12-19T05:54:29.538Z,46.43
2022-12-19T05:58:43.775Z,44.78
2022-12-19T06:01:14.495Z,45.22
2022-12-19T06:03:44.570Z,40.00
2022-12-19T06:06:13.327Z,37.43
2022-12-19T06:08:40.914Z,38.17
2022-12-19T06:11:08.425Z,44.72
2022-12-19T06:13:36.289Z,42.27
2022-12-19T06:16:06.945Z,38.37
2022-12-19T06:18:34.482Z,41.07
2022-12-19T06:21:09.184Z,40.23
2022-12-19T06:23:36.712Z,41.57
2022-12-19T06:26:05.011Z,42.40
2022-12-19T06:28:32.589Z,40.50
2022-12-19T06:31:00.111Z,37.93
2022-12-19T06:33:28.414Z,35.70
2022-12-19T06:36:02.330Z,38.77
2022-12-19T06:38:29.863Z,44.13
2022-12-19T06:41:16.138Z,37.70
2022-12-19T06:43:43.670Z,35.73
2022-12-19T06:46:11.242Z,35.37
2022-12-19T06:48:38.787Z,42.60
2022-12-19T06:51:06.322Z,37.30
2022-12-19T06:53:33.855Z,36.80
2022-12-19T06:56:02.215Z,36.10
2022-12-19T06:58:29.742Z,33.30
2022-12-19T07:00:57.301Z,37.73
2022-12-19T07:03:24.841Z,42.50
2022-12-19T07:05:52.348Z,36.80
2022-12-19T07:08:19.884Z,41.42
2022-12-19T07:10:47.494Z,39.30
2022-12-19T07:13:14.979Z,39.42
2022-12-19T07:15:42.516Z,37.97
2022-12-19T07:18:10.361Z,36.87
2022-12-19T07:20:43.363Z,36.67
2022-12-19T07:23:06.182Z,34.10
2022-12-19T07:25:33.746Z,32.07
2022-12-19T07:28:02.047Z,36.60
2022-12-19T07:30:30.511Z,32.97
2022-12-19T07:32:57.895Z,34.40
2022-12-19T07:35:25.446Z,37.50
2022-12-19T07:37:53.741Z,34.20
2022-12-19T07:40:21.338Z,41.50
2022-12-19T07:42:48.840Z,40.00
2022-12-19T07:45:16.365Z,37.47
2022-12-19T07:47:44.215Z,39.03
2022-12-19T07:50:11.742Z,39.40
2022-12-19T07:52:39.267Z,35.80
2022-12-19T07:55:08.799Z,42.80
2022-12-19T07:57:36.337Z,42.90
2022-12-19T08:00:03.868Z,35.80
2022-12-19T08:02:32.001Z,38.43
2022-12-19T08:05:03.289Z,37.47
2022-12-19T08:07:30.839Z,39.57
2022-12-19T08:09:58.398Z,43.20
2022-12-19T08:12:25.925Z,40.93
2022-12-19T08:14:57.124Z,42.20
2022-12-19T08:17:22.237Z,43.93
2022-12-19T08:19:49.497Z,43.47
2022-12-19T08:22:17.016Z,43.17
2022-12-19T08:24:44.592Z,43.97
2022-12-19T08:27:12.885Z,40.70
2022-12-19T08:29:40.433Z,37.73
2022-12-19T08:32:09.057Z,38.83
2022-12-19T08:34:36.575Z,42.60
2022-12-19T08:37:04.953Z,42.17
2022-12-19T08:39:33.404Z,35.37
2022-12-19T08:42:00.927Z,35.73
2022-12-19T08:44:28.463Z,36.67
2022-12-19T08:46:56.037Z,36.17
2022-12-19T08:49:23.552Z,35.27
2022-12-19T08:51:51.097Z,34.63
2022-12-19T08:54:19.030Z,41.20
2022-12-19T08:56:47.242Z,40.27
2022-12-19T08:59:14.949Z,37.93
2022-12-19T09:01:42.349Z,31.83
2022-12-19T09:05:52.924Z,30.03
2022-12-19T09:06:38.172Z,32.20
2022-12-19T09:09:05.927Z,30.97
2022-12-19T09:11:33.491Z,33.10
2022-12-19T09:14:01.762Z,41.60
2022-12-19T09:16:29.544Z,40.10
2022-12-19T09:18:56.871Z,39.07
2022-12-19T09:21:24.419Z,45.97
2022-12-19T09:23:54.696Z,39.57
2022-12-19T09:26:22.230Z,39.83
2022-12-19T09:28:49.804Z,40.67
2022-12-19T09:31:17.379Z,39.50
2022-12-19T09:33:45.075Z,46.85
2022-12-19T09:36:13.144Z,44.83
2022-12-19T09:38:40.727Z,43.33
2022-12-19T09:41:14.219Z,43.00
2022-12-19T09:43:49.357Z,38.67
2022-12-19T09:46:19.885Z,41.20
2022-12-19T09:48:54.051Z,43.33
2022-12-19T09:51:23.620Z,46.30
2022-12-19T09:53:59.905Z,42.30
2022-12-19T09:56:27.430Z,41.57
2022-12-19T09:58:55.874Z,44.90
2022-12-19T10:01:24.197Z,39.30
2022-12-19T10:04:07.047Z,40.00
2022-12-19T10:07:22.063Z,37.80
2022-12-19T10:10:04.308Z,39.83
2022-12-19T10:12:43.381Z,37.30
2022-12-19T10:14:12.359Z,36.43
2022-12-19T10:17:23.241Z,37.33
2022-12-19T10:19:40.709Z,43.87
2022-12-19T10:22:19.372Z,38.97
2022-12-19T10:25:02.053Z,36.30
2022-12-19T10:27:21.375Z,38.37
2022-12-19T10:29:58.160Z,36.63
2022-12-19T10:32:41.194Z,41.00
2022-12-19T10:35:08.723Z,38.40
2022-12-19T10:37:47.273Z,37.80
2022-12-19T10:40:24.767Z,39.50
2022-12-19T10:43:06.543Z,35.80
2022-12-19T10:45:34.520Z,40.50
2022-12-19T10:48:02.074Z,30.50
2022-12-19T10:50:32.373Z,33.43
2022-12-19T10:53:10.082Z,34.83
2022-12-19T10:55:50.429Z,33.33
2022-12-19T10:58:23.683Z,34.37
2022-12-19T11:01:06.637Z,34.30
2022-12-19T11:03:34.311Z,38.90
2022-12-19T11:06:01.737Z,33.70
2022-12-19T11:08:29.248Z,38.63
2022-12-19T11:14:28.163Z,32.77
2022-12-19T11:18:34.011Z,35.10
2022-12-19T11:19:44.559Z,37.03
2022-12-19T11:27:25.105Z,43.80
2022-12-19T11:29:26.685Z,41.97
2022-12-19T11:29:34.919Z,41.17
2022-12-19T11:30:47.112Z,38.87
2022-12-19T11:30:47.268Z,37.73
2022-12-19T11:33:37.833Z,42.30
2022-12-19T11:36:05.324Z,34.60
2022-12-19T11:38:35.341Z,34.97
2022-12-19T11:41:02.876Z,37.03
2022-12-19T11:43:46.731Z,32.57
2022-12-19T11:46:03.714Z,36.87
2022-12-19T11:48:36.964Z,40.53
2022-12-19T11:51:33.929Z,39.40
2022-12-19T11:54:01.470Z,35.43
2022-12-19T11:56:29.803Z,34.60
2022-12-19T11:59:18.335Z,35.43
2022-12-19T12:02:01.009Z,40.07
2022-12-19T12:04:43.565Z,38.00
2022-12-19T12:07:32.491Z,36.70
2022-12-19T12:14:54.955Z,46.28
2022-12-19T12:20:40.099Z,42.00
2022-12-19T12:29:15.757Z,39.63
2022-12-19T12:31:09.512Z,41.85
2022-12-19T12:31:21.634Z,38.27
2022-12-19T12:31:58.825Z,38.20
2022-12-19T12:32:04.343Z,41.78
2022-12-19T12:32:06.316Z,40.40
2022-12-19T12:35:31.720Z,33.27
2022-12-19T12:42:05.546Z,38.03
2022-12-19T12:44:33.759Z,39.90
2022-12-19T12:47:09.427Z,50.77
2022-12-19T12:49:42.724Z,42.63
2022-12-19T12:52:10.257Z,42.30
2022-12-19T12:54:38.564Z,39.03
2022-12-19T12:57:06.755Z,42.13
2022-12-19T12:59:34.286Z,42.17
2022-12-19T13:02:02.049Z,47.67
2022-12-19T13:04:32.386Z,41.60
2022-12-19T13:07:02.574Z,41.60
2022-12-19T13:09:30.874Z,38.43
2022-12-19T13:12:22.465Z,41.67
2022-12-19T13:14:50.803Z,40.70
2022-12-19T13:17:33.177Z,39.20
2022-12-19T13:20:04.121Z,43.37
2022-12-19T13:22:31.751Z,38.30
2022-12-19T13:25:01.306Z,40.20
2022-12-19T13:27:31.895Z,41.97
2022-12-19T13:30:00.253Z,40.33
2022-12-19T13:32:27.775Z,41.97
2022-12-19T13:35:20.585Z,48.53
2022-12-19T13:39:52.445Z,57.90
2022-12-19T13:40:32.506Z,53.57
2022-12-19T13:43:20.650Z,45.87
2022-12-19T13:46:03.244Z,43.13
2022-12-19T13:48:30.776Z,43.83
2022-12-19T13:50:58.311Z,48.47
2022-12-19T13:53:25.845Z,47.53
2022-12-19T13:56:05.804Z,42.63
2022-12-19T13:58:33.312Z,41.70
2022-12-19T14:01:03.916Z,42.27
2022-12-19T14:03:31.603Z,41.50
2022-12-19T14:06:17.659Z,37.53
2022-12-19T14:08:32.407Z,43.40
2022-12-19T14:11:37.292Z,45.40
2022-12-19T14:14:00.452Z,44.17
2022-12-19T14:16:19.089Z,37.07
2022-12-19T14:18:49.250Z,42.97
2022-12-19T14:22:09.846Z,42.37
2022-12-19T14:23:50.332Z,40.17
2022-12-19T14:28:18.040Z,38.43
2022-12-19T14:28:59.644Z,39.90
2022-12-19T14:31:27.964Z,35.53
2022-12-19T14:36:26.200Z,35.77
2022-12-19T14:39:23.727Z,35.97
2022-12-19T14:41:21.065Z,36.70
2022-12-19T14:43:59.872Z,37.73
2022-12-19T14:54:01.314Z,37.20
2022-12-19T14:54:07.205Z,36.50
2022-12-19T14:54:34.716Z,40.53
2022-12-19T14:55:17.221Z,29.27
2022-12-19T14:56:59.894Z,26.90
2022-12-19T14:59:28.667Z,24.70
2022-12-19T15:02:00.014Z,34.43
2022-12-19T15:04:49.313Z,44.13
2022-12-19T15:07:07.657Z,39.80
2022-12-19T15:11:06.148Z,39.30
2022-12-19T15:13:13.150Z,36.13
2022-12-19T15:14:56.535Z,38.00
2022-12-19T15:17:21.585Z,29.33
2022-12-19T15:19:46.584Z,29.73
2022-12-19T15:22:14.130Z,32.77
2022-12-19T15:24:42.455Z,34.20
2022-12-19T15:27:13.209Z,56.93
2022-12-19T15:29:40.742Z,45.97
2022-12-19T15:32:13.994Z,39.28
2022-12-19T15:34:50.724Z,33.57
2022-12-19T15:37:12.783Z,32.03
2022-12-19T15:39:40.329Z,31.70
2022-12-19T15:42:07.894Z,38.60
2022-12-19T15:44:35.399Z,43.47
2022-12-19T15:47:03.065Z,51.07
2022-12-19T15:49:30.515Z,36.73
2022-12-19T15:51:58.052Z,52.20
2022-12-19T15:56:54.176Z,53.30
2022-12-19T15:59:37.388Z,55.30
2022-12-19T16:02:04.367Z,36.67
2022-12-19T16:04:32.101Z,23.90
2022-12-19T16:07:00.523Z,25.52
2022-12-19T16:09:28.075Z,19.50
2022-12-19T16:11:55.612Z,20.27
2022-12-19T16:14:23.204Z,19.23
2022-12-19T16:16:50.801Z,15.77
2022-12-19T16:19:25.089Z,18.27
2022-12-19T16:21:54.493Z,17.10
2022-12-19T16:24:22.019Z,18.20
2022-12-19T16:26:56.171Z,17.40
2022-12-19T16:29:23.751Z,20.63
2022-12-19T16:31:51.365Z,14.80
2022-12-19T16:34:18.890Z,19.23
2022-12-19T16:36:46.474Z,17.60
2022-12-19T16:39:14.823Z,16.58
2022-12-19T16:41:43.728Z,17.43
2022-12-19T16:44:19.516Z,18.25
2022-12-19T16:46:50.659Z,15.40
2022-12-19T16:49:13.426Z,20.23
2022-12-19T16:51:41.279Z,18.33
2022-12-19T16:54:08.819Z,18.93
2022-12-19T16:56:39.620Z,17.97
2022-12-19T16:59:07.158Z,13.60
2022-12-19T17:01:34.778Z,16.80
2022-12-19T17:04:03.184Z,13.17
2022-12-19T17:06:30.765Z,17.20
2022-12-19T17:08:58.308Z,19.57
2022-12-19T17:11:25.861Z,15.70
2022-12-19T17:13:53.408Z,19.63
2022-12-19T17:16:20.972Z,18.10
2022-12-19T17:18:49.228Z,17.90
2022-12-19T17:21:16.795Z,17.17
2022-12-19T17:23:44.313Z,17.70
2022-12-19T17:26:17.457Z,16.53
2022-12-19T17:28:39.440Z,16.10
2022-12-19T17:31:07.758Z,17.60
2022-12-19T17:33:35.312Z,17.30
2022-12-19T17:36:02.881Z,18.87
2022-12-19T17:38:30.417Z,21.53
2022-12-19T17:40:58.765Z,21.50
2022-12-19T17:43:26.582Z,24.23
2022-12-19T17:45:54.234Z,17.30
2022-12-19T17:48:27.374Z,18.40
2022-12-19T17:50:55.729Z,19.70
2022-12-19T17:53:23.262Z,18.80
2022-12-19T17:55:50.800Z,18.37
2022-12-19T17:58:19.137Z,15.87
2022-12-19T18:00:49.385Z,13.37
2022-12-19T18:03:25.743Z,17.80
2022-12-19T18:05:53.185Z,22.75
2022-12-19T18:08:26.387Z,19.58
2022-12-19T18:10:54.999Z,18.62
2022-12-19T18:13:22.527Z,19.10
2022-12-19T18:15:50.114Z,20.43
2022-12-19T18:18:17.646Z,17.83
2022-12-19T18:20:46.055Z,22.10
2022-12-19T18:23:16.408Z,19.70
2022-12-19T18:25:44.267Z,19.97
2022-12-19T18:28:11.784Z,16.30
2022-12-19T18:30:40.173Z,20.53
2022-12-19T18:33:07.686Z,15.60
2022-12-19T18:35:37.943Z,18.77
2022-12-19T18:38:05.481Z,18.00
2022-12-19T18:40:33.053Z,17.33
2022-12-19T18:43:00.596Z,19.15
2022-12-19T18:45:28.160Z,16.73
2022-12-19T18:47:55.693Z,16.98
2022-12-19T18:50:23.268Z,21.87
2022-12-19T18:52:51.354Z,15.90
2022-12-19T18:55:21.908Z,15.73
2022-12-19T18:57:50.209Z,18.30
2022-12-19T19:00:17.836Z,19.50
2022-12-19T19:02:52.065Z,16.43
2022-12-19T19:05:22.567Z,18.55
2022-12-19T19:07:50.106Z,19.97
2022-12-19T19:10:20.599Z,19.60
2022-12-19T19:12:48.129Z,17.83
2022-12-19T19:15:16.438Z,16.43
2022-12-19T19:17:44.291Z,15.77
2022-12-19T19:20:11.913Z,20.00
2022-12-19T19:22:39.443Z,17.33
2022-12-19T19:25:07.021Z,20.02
2022-12-19T19:27:34.539Z,18.13
2022-12-19T19:30:02.072Z,21.87
2022-12-19T19:32:30.402Z,15.53
2022-12-19T19:34:57.994Z,16.17
2022-12-19T19:37:25.587Z,14.82
2022-12-19T19:39:53.152Z,16.57
2022-12-19T19:42:20.710Z,30.23
2022-12-19T19:44:48.279Z,27.33
2022-12-19T19:47:15.856Z,25.37
2022-12-19T19:49:43.406Z,19.27
2022-12-19T19:52:10.927Z,19.03
2022-12-19T19:54:39.268Z,19.10
2022-12-19T19:57:06.864Z,21.43
2022-12-19T19:59:35.149Z,32.70
2022-12-19T20:02:02.814Z,30.13
2022-12-19T20:04:30.374Z,23.87
2022-12-19T20:06:57.892Z,25.20
2022-12-19T20:09:25.461Z,66.80
2022-12-19T20:11:53.791Z,39.10
2022-12-19T20:14:21.609Z,25.37
2022-12-19T20:16:49.281Z,21.30
2022-12-19T20:19:16.767Z,23.33
2022-12-19T20:21:44.312Z,23.73
2022-12-19T20:24:11.920Z,27.53
2022-12-19T20:26:39.466Z,28.23
2022-12-19T20:29:06.994Z,25.70
2022-12-19T20:31:35.241Z,23.50
2022-12-19T20:34:02.745Z,30.98
2022-12-19T20:36:30.288Z,30.87
2022-12-19T20:38:57.884Z,24.37
2022-12-19T20:41:25.427Z,27.75
2022-12-19T20:43:52.963Z,26.90
2022-12-19T20:46:20.546Z,26.03
2022-12-19T20:48:48.061Z,29.40
2022-12-19T20:51:16.360Z,40.63
2022-12-19T20:53:45.631Z,38.53
2022-12-19T20:56:13.084Z,39.53
2022-12-19T20:58:41.465Z,31.43
2022-12-19T21:01:13.327Z,36.27
2022-12-19T21:03:41.070Z,33.17
2022-12-19T21:06:08.398Z,43.33
2022-12-19T21:08:36.351Z,70.30
2022-12-19T21:11:03.875Z,35.20
2022-12-19T21:13:32.167Z,27.10
2022-12-19T21:15:59.853Z,35.37
2022-12-19T21:18:27.288Z,29.93
2022-12-19T21:20:54.822Z,34.47
2022-12-19T21:23:22.431Z,29.43
2022-12-19T21:25:49.937Z,35.97
2022-12-19T21:28:17.467Z,38.70
2022-12-19T21:30:45.093Z,33.87
2022-12-19T21:33:12.664Z,38.50
2022-12-19T21:35:40.199Z,33.83
2022-12-19T21:38:07.773Z,32.87
2022-12-19T21:40:35.295Z,31.40
2022-12-19T21:43:11.144Z,36.93
2022-12-19T21:45:31.183Z,32.27
2022-12-19T21:47:58.712Z,24.03
2022-12-19T21:50:26.247Z,28.83
2022-12-19T21:52:56.033Z,25.17
2022-12-19T21:55:22.151Z,24.43
2022-12-19T21:57:49.635Z,26.30
2022-12-19T22:00:17.257Z,28.50
2022-12-19T22:03:01.964Z,27.83
2022-12-19T22:05:13.069Z,25.03
2022-12-19T22:07:40.639Z,28.23
2022-12-19T22:10:08.406Z,32.47
2022-12-19T22:12:35.920Z,26.30
2022-12-19T22:15:04.308Z,29.60
2022-12-19T22:17:32.621Z,28.77
2022-12-19T22:20:00.171Z,25.53
2022-12-19T22:22:28.035Z,23.10
2022-12-19T22:24:55.573Z,24.30
2022-12-19T22:27:23.854Z,24.83
2022-12-19T22:29:51.419Z,26.70
2022-12-19T22:32:18.944Z,23.23
2022-12-19T22:34:46.470Z,25.07
2022-12-19T22:37:14.120Z,27.13
2022-12-19T22:39:41.579Z,25.95
2022-12-19T22:42:09.103Z,25.50
2022-12-19T22:44:37.692Z,26.77
2022-12-19T22:47:05.214Z,23.87
2022-12-19T22:49:32.739Z,29.37
2022-12-19T22:52:00.308Z,27.33
2022-12-19T22:54:27.836Z,23.33
2022-12-19T22:56:55.364Z,23.73
2022-12-19T22:59:23.690Z,23.60
2022-12-19T23:01:51.364Z,24.70
2022-12-19T23:04:19.641Z,24.80
2022-12-19T23:06:47.077Z,30.93
2022-12-19T23:09:14.603Z,26.67
2022-12-19T23:11:42.919Z,23.83
2022-12-19T23:14:10.479Z,21.73
2022-12-19T23:16:38.079Z,25.47
2022-12-19T23:19:05.540Z,28.73
2022-12-19T23:21:33.162Z,26.83
2022-12-19T23:24:00.670Z,28.42
2022-12-19T23:26:31.638Z,25.37
2022-12-19T23:29:01.931Z,22.27
2022-12-19T23:31:29.545Z,22.70
2022-12-19T23:33:57.024Z,22.43
2022-12-19T23:37:00.371Z,23.00
2022-12-19T23:38:55.083Z,19.30
2022-12-19T23:41:22.608Z,14.73
2022-12-19T23:43:51.937Z,17.00
2022-12-19T23:46:19.583Z,17.17
2022-12-19T23:48:47.765Z,17.37
2022-12-19T23:51:15.337Z,18.43
2022-12-19T23:53:42.854Z,15.73
2022-12-19T23:56:14.090Z,15.77
2022-12-19T23:58:41.677Z,14.93
